Hauptseite
METAR-TAF:

METAR-TAF

Flughäfen :

Flughafen Isle of Man

Isle of Man,

Breite: 54-05N, Länge: 004-38W, Höhe: 17 m

Beobachtung

Neuester Wetterbericht von vor 1 Stunde und 31 Minuten, um 00:50 UTC
Wind 22 kt aus Ost/Südost
Temperatur 9°C
Luftfeuchtigkeit 76%
Luftdruck 1028 hPa
Sichtweite 10 km oder mehr
keine Wolken unter 1500 m und keine Kumulonimbus oder Gewitterwolken

METAR: EGNS 180050Z 11022KT CAVOK 09/05 Q1028

Zeit: 02:21 (02:21 UTC)

Prognose

Neuester Wetterbericht von vor 9 Stunden und 21 Minuten, um 17:00 UTC
Gültige Prognose vom 17 um 18 UTC bis 17 um 22 UTC
Wind 22 kt aus Ost, Böen bis zu 32 kt
Sichtweite 10 km oder mehr
Zeitweise
vom 17 um 18 UTC bis 17 um 22 UTC
Sichtweite: 8000 m

TAF: EGNS 171700Z 1718/1722 09022G32KT 9999 NSC TEMPO 1718/1722 8000

Wetterbeobachtungen und Prognosen von mehr als 4000 Flughäfen (METAR und TAF Bericht).

Die verfügbaren Stationen werden durch gelbe und rote Markierungen auf der Karte dargestellt.

Führen Sie die Maus auf sie, um den Namen der Station zu sehen.

Darauf klicken, um die Beobachtung von Wetterbeobachtungen und Prognosen zu sehen.

Um die Karte zu ändern : klicken Sie auf den grünen Tasten mit einem schwarzen Kreuz Zum Vergrößern, auf den grünen Button mit einem Gedankenstrich zu verkleinern, oder auf die grünen Pfeile für benachbarte Karten.


METAR-TAF: